Time;durP1;ratioP1;P1;durP2;ratioP2;P2;SDS_P1;SDS_P2;PMS_P1;PMS_P2;Temp;Humidity;BMP_temperature;BMP_pressure;BME280_temperature;BME280_humidity;BME280_pressure;Samples;Min_cycle;Max_cycle;Signal;HPM_P1;HPM_P2
2022/03/26 00:00:04;;;;;;;62.55;19.33;;;;;;;9.08;57.87;103157.88;5093100;28;20028;-75
2022/03/26 00:02:29;;;;;;;57.70;20.10;;;;;;;9.08;58.01;103155.19;5091990;28;20073;-75
2022/03/26 00:04:55;;;;;;;48.67;19.45;;;;;;;9.06;58.25;103157.13;5092743;28;20036;-75
2022/03/26 00:07:20;;;;;;;58.15;21.05;;;;;;;9.06;58.32;103162.50;5092523;28;20366;-75
2022/03/26 00:09:46;;;;;;;51.08;18.98;;;;;;;9.01;58.72;103158.34;5092118;28;20065;-74
2022/03/26 00:12:11;;;;;;;54.55;19.05;;;;;;;8.98;58.75;103166.66;5093396;28;20386;-75
2022/03/26 00:14:36;;;;;;;49.58;19.67;;;;;;;8.97;59.13;103164.91;5092682;28;20077;-73
2022/03/26 00:17:02;;;;;;;51.17;19.17;;;;;;;8.98;59.17;103172.00;5092882;28;20063;-73
2022/03/26 00:19:27;;;;;;;54.03;18.33;;;;;;;8.98;59.35;103168.47;5093097;28;20120;-74
2022/03/26 00:21:53;;;;;;;57.50;20.48;;;;;;;8.96;59.73;103173.94;5092439;28;20435;-73
2022/03/26 00:24:18;;;;;;;57.83;19.50;;;;;;;8.93;59.33;103166.13;5092954;28;20063;-73
2022/03/26 00:26:43;;;;;;;56.35;20.65;;;;;;;8.89;59.24;103169.16;5091508;28;20032;-75
2022/03/26 00:29:09;;;;;;;52.08;19.77;;;;;;;8.81;58.87;103166.19;5092371;28;20032;-74
2022/03/26 00:31:37;;;;;;;52.97;20.02;;;;;;;8.78;59.18;103161.88;5092551;28;20059;-74
2022/03/26 00:34:02;;;;;;;68.25;21.05;;;;;;;8.73;59.08;103170.28;5092832;28;20051;-74
2022/03/26 00:36:28;;;;;;;59.95;20.70;;;;;;;8.73;58.96;103170.28;5092075;28;20443;-75
2022/03/26 00:38:53;;;;;;;56.85;19.75;;;;;;;8.69;59.44;103170.59;5092288;28;20071;-74
2022/03/26 00:41:18;;;;;;;62.35;21.90;;;;;;;8.62;59.46;103172.03;5091253;28;20032;-74
2022/03/26 00:43:44;;;;;;;55.70;20.45;;;;;;;8.54;60.07;103168.09;5092676;28;20067;-74
2022/03/26 00:46:10;;;;;;;56.20;19.30;;;;;;;8.59;59.67;103169.59;5092614;28;20075;-74
2022/03/26 00:48:36;;;;;;;61.72;21.23;;;;;;;8.55;60.95;103167.09;5092312;28;20024;-74
2022/03/26 00:51:01;;;;;;;51.97;20.67;;;;;;;8.55;61.01;103171.63;5092205;28;20020;-73
2022/03/26 00:53:26;;;;;;;57.67;20.20;;;;;;;8.59;59.97;103161.53;5090876;28;20388;-74
2022/03/26 00:55:52;;;;;;;51.72;20.80;;;;;;;8.57;59.72;103167.84;5092107;28;20467;-74
2022/03/26 00:58:17;;;;;;;52.75;19.40;;;;;;;8.57;59.89;103170.53;5090535;28;20035;-74
2022/03/26 01:00:42;;;;;;;53.47;20.17;;;;;;;8.59;59.81;103181.19;5090480;28;20081;-75
2022/03/26 01:03:09;;;;;;;48.42;19.92;;;;;;;8.61;59.56;103179.25;5092244;28;20039;-74
2022/03/26 01:05:35;;;;;;;49.78;20.80;;;;;;;8.57;59.83;103178.59;5092086;28;20028;-73
2022/03/26 01:08:00;;;;;;;56.13;22.10;;;;;;;8.56;60.29;103190.31;5091008;28;20040;-75
2022/03/26 01:10:26;;;;;;;64.38;22.65;;;;;;;8.55;59.98;103177.84;5091878;28;20028;-73
2022/03/26 01:12:52;;;;;;;56.35;21.70;;;;;;;8.53;59.65;103185.16;5092146;28;20122;-74
2022/03/26 01:15:18;;;;;;;59.60;22.90;;;;;;;8.55;60.04;103183.22;5091893;28;20116;-74
2022/03/26 01:17:44;;;;;;;57.00;23.23;;;;;;;8.51;60.19;103173.69;5091979;28;20039;-74
2022/03/26 01:20:09;;;;;;;55.60;23.55;;;;;;;8.51;60.17;103181.72;5091826;28;20027;-74
2022/03/26 01:22:35;;;;;;;62.42;23.00;;;;;;;8.48;60.82;103179.28;5091572;28;20118;-73
2022/03/26 01:25:00;;;;;;;68.30;23.85;;;;;;;8.42;60.74;103182.38;5092153;28;20089;-73
2022/03/26 01:27:25;;;;;;;54.70;23.83;;;;;;;8.40;60.98;103175.41;5091186;28;20114;-72
2022/03/26 01:29:51;;;;;;;63.72;25.23;;;;;;;8.39;60.77;103177.25;5091562;28;20085;-73
2022/03/26 01:32:16;;;;;;;63.05;24.15;;;;;;;8.39;60.69;103177.25;5091704;28;20077;-74
2022/03/26 01:34:41;;;;;;;65.47;24.13;;;;;;;8.36;61.12;103177.44;5091795;28;20074;-74
2022/03/26 01:37:07;;;;;;;54.13;23.27;;;;;;;8.29;61.33;103170.78;5091318;28;20129;-73
2022/03/26 01:39:32;;;;;;;66.25;25.08;;;;;;;8.33;61.00;103174.97;5091583;28;20028;-73
2022/03/26 01:42:06;;;;;;;61.88;25.58;;;;;;;8.32;61.08;103166.06;5091033;28;20027;-74
2022/03/26 01:44:31;;;;;;;56.67;23.63;;;;;;;8.26;61.47;103173.69;5091446;28;20024;-74
2022/03/26 01:46:57;;;;;;;56.45;23.30;;;;;;;8.22;61.39;103173.06;5091030;28;20032;-73
2022/03/26 01:49:22;;;;;;;64.80;25.38;;;;;;;8.22;61.59;103172.22;5090396;28;20113;-75
2022/03/26 01:51:48;;;;;;;60.30;24.60;;;;;;;8.13;61.99;103171.88;5090475;28;20160;-73
2022/03/26 01:54:14;;;;;;;60.67;23.77;;;;;;;8.10;61.99;103172.09;5090692;28;20059;-74
2022/03/26 01:56:40;;;;;;;49.30;22.20;;;;;;;8.11;62.19;103165.78;5091132;28;20377;-74
2022/03/26 01:59:07;;;;;;;62.50;24.40;;;;;;;8.10;62.09;103169.41;5090853;28;20103;-73
2022/03/26 02:01:33;;;;;;;62.72;23.13;;;;;;;8.10;61.99;103161.38;5090983;28;20111;-73
2022/03/26 02:04:02;;;;;;;62.67;24.20;;;;;;;8.05;62.40;103163.50;5091297;28;20024;-74
2022/03/26 02:06:32;;;;;;;74.55;25.17;;;;;;;8.03;62.77;103160.09;5090772;28;20139;-74
2022/03/26 02:09:00;;;;;;;58.97;23.42;;;;;;;7.99;62.73;103161.28;5090357;28;20044;-74
2022/03/26 02:11:26;;;;;;;54.88;23.80;;;;;;;7.94;63.15;103159.88;5090520;28;20386;-73
2022/03/26 02:13:55;;;;;;;57.35;23.83;;;;;;;7.93;63.79;103164.41;5090656;28;20024;-74
2022/03/26 02:16:22;;;;;;;56.90;23.67;;;;;;;7.91;63.78;103161.81;5090957;28;20035;-73
2022/03/26 02:18:48;;;;;;;64.80;23.98;;;;;;;7.92;64.22;103165.34;5090917;28;20176;-72
2022/03/26 02:21:15;;;;;;;65.82;23.77;;;;;;;7.89;64.24;103154.84;5089919;28;20414;-73
2022/03/26 02:23:41;;;;;;;63.70;24.38;;;;;;;7.86;63.96;103161.28;5089267;28;20035;-73
2022/03/26 02:26:06;;;;;;;61.55;24.65;;;;;;;7.86;64.33;103155.06;5090980;28;20028;-74
2022/03/26 02:28:32;;;;;;;59.40;23.25;;;;;;;7.85;63.95;103153.34;5090519;28;20035;-73
2022/03/26 02:30:57;;;;;;;62.58;24.70;;;;;;;7.84;63.54;103151.63;5088774;28;20422;-74
2022/03/26 02:33:23;;;;;;;61.92;26.30;;;;;;;7.81;63.75;103155.38;5090640;28;20081;-75
2022/03/26 02:35:48;;;;;;;62.65;24.15;;;;;;;7.79;64.03;103151.06;5090193;28;20077;-74
2022/03/26 02:38:13;;;;;;;67.40;24.75;;;;;;;7.75;64.23;103154.97;5090253;28;20156;-75
2022/03/26 02:40:39;;;;;;;62.85;25.08;;;;;;;7.75;64.92;103149.59;5089988;28;20032;-76
2022/03/26 02:43:07;;;;;;;59.00;24.80;;;;;;;7.69;64.74;103148.19;5091069;28;20028;-74
2022/03/26 02:45:32;;;;;;;58.22;24.00;;;;;;;7.69;64.96;103157.09;5092331;28;20099;-73
2022/03/26 02:47:58;;;;;;;59.08;23.83;;;;;;;7.67;65.18;103159.00;5092662;28;20451;-73
2022/03/26 02:50:24;;;;;;;54.92;23.60;;;;;;;7.62;65.20;103152.25;5095745;28;20044;-74
2022/03/26 02:52:50;;;;;;;68.68;25.13;;;;;;;7.61;65.02;103154.09;5090762;28;20100;-76
2022/03/26 02:55:16;;;;;;;65.70;24.88;;;;;;;7.62;65.18;103150.44;5090749;28;20164;-74
2022/03/26 02:57:41;;;;;;;61.67;25.45;;;;;;;7.60;65.36;103155.03;5090263;28;20466;-73
2022/03/26 03:00:08;;;;;;;67.00;25.08;;;;;;;7.58;65.44;103153.44;5092189;28;20432;-74
2022/03/26 03:02:34;;;;;;;72.35;26.75;;;;;;;7.62;65.63;103149.59;5093769;28;20544;-73
2022/03/26 03:05:00;;;;;;;65.00;26.00;;;;;;;7.57;65.35;103152.56;5095000;28;20036;-74
2022/03/26 03:07:25;;;;;;;62.28;23.70;;;;;;;7.57;65.56;103152.56;5094309;28;20060;-73
2022/03/26 03:09:51;;;;;;;59.40;25.20;;;;;;;7.58;65.77;103148.06;5085190;28;20477;-73
2022/03/26 03:12:16;;;;;;;62.85;24.67;;;;;;;7.57;65.68;103149.03;5089762;28;20035;-73
2022/03/26 03:14:42;;;;;;;60.63;24.63;;;;;;;7.56;65.85;103150.03;5095684;28;20154;-73
2022/03/26 03:17:07;;;;;;;77.75;26.63;;;;;;;7.53;65.95;103151.09;5095048;28;20073;-74
2022/03/26 03:19:32;;;;;;;66.35;26.20;;;;;;;7.50;66.40;103151.28;5095533;28;20028;-74
2022/03/26 03:21:58;;;;;;;60.95;25.17;;;;;;;7.50;66.48;103145.91;5094771;28;20360;-73
2022/03/26 03:24:23;;;;;;;68.05;27.00;;;;;;;7.49;66.27;103149.56;5093091;28;20035;-74
2022/03/26 03:26:48;;;;;;;66.72;26.70;;;;;;;7.46;66.28;103153.31;5094899;28;20036;-73
2022/03/26 03:29:14;;;;;;;71.35;27.30;;;;;;;7.43;66.67;103152.69;5095031;28;20110;-75
2022/03/26 03:31:44;;;;;;;69.38;27.58;;;;;;;7.44;66.68;103157.06;5093190;28;20063;-74
2022/03/26 03:34:10;;;;;;;76.53;28.38;;;;;;;7.41;66.93;103152.75;5095773;28;20083;-73
2022/03/26 03:36:35;;;;;;;75.88;27.50;;;;;;;7.39;67.23;103159.19;5094791;28;20111;-73
2022/03/26 03:39:00;;;;;;;68.07;27.77;;;;;;;7.33;67.63;103147.06;5094732;28;20024;-73
2022/03/26 03:41:26;;;;;;;71.97;27.27;;;;;;;7.29;67.90;103152.72;5094296;28;20450;-73
2022/03/26 03:43:51;;;;;;;73.03;28.08;;;;;;;7.26;68.29;103162.69;5094870;28;20419;-73
2022/03/26 03:46:16;;;;;;;74.13;27.67;;;;;;;7.27;68.11;103160.91;5094541;28;20380;-74
2022/03/26 03:48:42;;;;;;;76.40;29.10;;;;;;;7.23;68.17;103160.22;5094387;28;20036;-73
2022/03/26 03:51:07;;;;;;;74.75;28.30;;;;;;;7.23;68.23;103159.38;5094024;28;20368;-75
2022/03/26 03:53:33;;;;;;;76.65;28.90;;;;;;;7.23;68.46;103162.03;5093911;28;20063;-75
2022/03/26 03:55:58;;;;;;;75.32;31.23;;;;;;;7.22;68.68;103157.66;5094702;28;20026;-74
2022/03/26 03:58:24;;;;;;;87.15;31.70;;;;;;;7.20;68.74;103160.44;5092897;28;20437;-73
2022/03/26 04:00:49;;;;;;;75.57;30.30;;;;;;;7.18;68.82;103157.00;5093291;28;20035;-74
2022/03/26 04:03:17;;;;;;;82.75;31.05;;;;;;;7.15;68.63;103162.56;5094352;28;20483;-74
2022/03/26 04:05:43;;;;;;;96.72;33.67;;;;;;;7.11;69.42;103155.72;5094722;28;20474;-74
2022/03/26 04:08:08;;;;;;;85.15;31.92;;;;;;;7.06;69.38;103152.47;5093911;28;20044;-74
2022/03/26 04:10:34;;;;;;;81.68;32.05;;;;;;;7.03;69.50;103160.72;5094068;28;20573;-73
2022/03/26 04:12:59;;;;;;;86.72;32.35;;;;;;;7.03;69.45;103163.41;5093214;28;20028;-74
2022/03/26 04:15:24;;;;;;;93.68;33.58;;;;;;;7.09;69.53;103160.31;5094337;28;20635;-72
2022/03/26 04:17:52;;;;;;;79.43;33.63;;;;;;;7.08;69.48;103163.91;5094417;28;20047;-74
2022/03/26 04:20:17;;;;;;;90.68;35.13;;;;;;;7.00;70.12;103156.44;5093849;28;20024;-73
2022/03/26 04:22:42;;;;;;;86.55;34.63;;;;;;;6.97;70.21;103153.06;5093106;28;20100;-73
2022/03/26 04:25:08;;;;;;;93.50;33.70;;;;;;;6.94;70.70;103153.28;5093966;28;20028;-73
2022/03/26 04:27:34;;;;;;;92.63;34.70;;;;;;;6.94;71.01;103153.28;5092821;28;20065;-73
2022/03/26 04:29:59;;;;;;;87.68;33.95;;;;;;;6.93;71.20;103163.13;5093975;28;20099;-75
2022/03/26 04:32:25;;;;;;;93.63;38.25;;;;;;;6.92;71.22;103160.53;5094815;28;20036;-73
2022/03/26 04:34:50;;;;;;;93.65;35.80;;;;;;;6.91;71.21;103154.34;5093820;28;20372;-74
2022/03/26 04:37:15;;;;;;;97.03;36.92;;;;;;;6.92;71.53;103163.22;5093679;28;20024;-72
2022/03/26 04:39:41;;;;;;;106.05;36.75;;;;;;;6.91;71.57;103158.84;5094079;28;20504;-74
2022/03/26 04:42:06;;;;;;;97.63;38.67;;;;;;;6.92;71.58;103160.53;5093628;28;20145;-74
2022/03/26 04:44:32;;;;;;;94.05;38.03;;;;;;;6.89;71.44;103161.59;5093118;28;20436;-73
2022/03/26 04:46:57;;;;;;;98.70;38.72;;;;;;;6.88;71.63;103164.41;5093492;28;20391;-72
2022/03/26 04:49:23;;;;;;;104.75;39.88;;;;;;;6.82;71.26;103163.84;5092164;28;20024;-74
2022/03/26 04:51:48;;;;;;;100.72;37.88;;;;;;;6.75;71.65;103167.03;5092993;28;20024;-74
2022/03/26 04:54:14;;;;;;;102.32;40.20;;;;;;;6.71;71.77;103168.16;5093568;28;20020;-73
2022/03/26 04:56:39;;;;;;;103.97;41.20;;;;;;;6.71;72.66;103173.50;5093169;28;20028;-73
2022/03/26 04:59:05;;;;;;;102.95;39.75;;;;;;;6.70;72.94;103172.66;5092171;28;20230;-74
2022/03/26 05:01:31;;;;;;;105.10;40.38;;;;;;;6.68;73.27;103177.25;5093450;28;20193;-73
2022/03/26 05:03:56;;;;;;;105.53;40.97;;;;;;;6.67;73.28;103172.88;5093186;28;20429;-74
2022/03/26 05:06:22;;;;;;;124.03;41.65;;;;;;;6.66;73.69;103181.88;5092840;28;20016;-73
2022/03/26 05:08:48;;;;;;;113.78;42.88;;;;;;;6.71;74.00;103174.38;5092662;28;20172;-74
2022/03/26 05:11:14;;;;;;;108.75;41.92;;;;;;;6.71;73.94;103171.69;5093106;28;20052;-73
2022/03/26 05:13:39;;;;;;;112.53;42.10;;;;;;;6.77;73.98;103174.00;5091423;28;20068;-72
2022/03/26 05:16:04;;;;;;;106.88;41.97;;;;;;;6.76;74.09;103174.06;5092959;28;20028;-73
2022/03/26 05:18:31;;;;;;;113.93;44.05;;;;;;;6.76;73.92;103172.25;5092773;28;20487;-76
2022/03/26 05:20:56;;;;;;;104.93;41.15;;;;;;;6.77;74.18;103174.00;5077516;28;20043;-75
2022/03/26 05:23:22;;;;;;;106.55;42.67;;;;;;;6.78;74.28;103174.84;5080804;28;20154;-73
2022/03/26 05:25:47;;;;;;;113.70;44.08;;;;;;;6.74;74.03;103167.97;5080951;28;20036;-73
2022/03/26 05:28:13;;;;;;;114.22;44.72;;;;;;;6.72;73.96;103173.44;5091896;28;20020;-73
2022/03/26 05:30:38;;;;;;;113.80;43.70;;;;;;;6.71;74.12;103171.69;5092284;28;20028;-73
2022/03/26 05:33:03;;;;;;;114.30;43.85;;;;;;;6.69;74.18;103176.31;5092455;28;20024;-73
2022/03/26 05:35:29;;;;;;;102.43;42.78;;;;;;;6.67;74.29;103172.88;5091718;28;20446;-73
2022/03/26 05:37:55;;;;;;;112.30;41.30;;;;;;;6.65;74.03;103168.56;5075932;28;20041;-73
2022/03/26 05:40:21;;;;;;;101.38;39.70;;;;;;;6.61;74.25;103173.28;5084876;28;20028;-72
2022/03/26 05:42:48;;;;;;;104.53;41.15;;;;;;;6.60;74.55;103172.38;5092463;28;20028;-73
2022/03/26 05:45:14;;;;;;;113.43;42.50;;;;;;;6.53;74.26;103176.44;5092317;28;20106;-72
2022/03/26 05:47:39;;;;;;;104.35;41.40;;;;;;;6.52;74.60;103174.69;5092397;28;20050;-72
2022/03/26 05:50:07;;;;;;;105.43;42.25;;;;;;;6.55;74.92;103179.00;5091471;28;20069;-73
2022/03/26 05:52:32;;;;;;;106.93;44.05;;;;;;;6.57;74.71;103182.44;5092393;28;20460;-73
2022/03/26 05:54:58;;;;;;;105.15;41.25;;;;;;;6.54;74.66;103183.50;5094730;28;20044;-73
2022/03/26 05:57:23;;;;;;;104.55;42.13;;;;;;;6.57;74.66;103185.97;5094181;28;20084;-73
2022/03/26 05:59:49;;;;;;;107.93;40.85;;;;;;;6.62;75.10;103183.00;5092710;28;20077;-72
2022/03/26 06:02:15;;;;;;;111.53;42.03;;;;;;;6.65;75.21;103189.97;5099093;28;20350;-73
2022/03/26 06:04:43;;;;;;;101.18;41.97;;;;;;;6.72;75.28;103197.50;5087175;28;20039;-73
2022/03/26 06:07:09;;;;;;;107.85;42.63;;;;;;;6.81;75.11;103188.03;5086688;28;20048;-73
2022/03/26 06:09:35;;;;;;;108.53;42.58;;;;;;;6.90;74.92;103195.47;5072629;28;20034;-74
2022/03/26 06:12:01;;;;;;;104.75;43.05;;;;;;;7.00;74.72;103191.22;5089435;28;20035;-74
2022/03/26 06:14:26;;;;;;;106.60;42.83;;;;;;;7.15;74.52;103200.06;5090796;28;20032;-74
2022/03/26 06:16:52;;;;;;;109.95;42.65;;;;;;;7.35;73.80;103196.06;5073318;28;20035;-73
2022/03/26 06:19:17;;;;;;;106.65;43.28;;;;;;;7.52;73.20;103202.94;5090164;28;20470;-73
2022/03/26 06:21:42;;;;;;;109.82;43.60;;;;;;;7.52;72.30;103194.91;5090664;28;20028;-73
2022/03/26 06:24:08;;;;;;;120.20;43.03;;;;;;;7.62;71.96;103212.06;5092403;28;20030;-73
2022/03/26 06:26:36;;;;;;;105.03;41.40;;;;;;;7.77;71.88;103207.50;5084478;28;20024;-74
2022/03/26 06:29:04;;;;;;;;;;;;;;;8.02;71.72;103206.63;5082702;28;20392;-73
2022/03/26 06:31:29;;;;;;;;;;;;;;;8.38;71.09;103213.06;5077763;28;19991;-75
2022/03/26 06:33:54;;;;;;;111.13;41.70;;;;;;;8.72;69.68;103200.78;5090067;28;19924;-73
2022/03/26 06:36:20;;;;;;;102.18;41.75;;;;;;;8.91;68.19;103205.66;5096460;28;20028;-73
2022/03/26 06:38:45;;;;;;;113.15;42.03;;;;;;;9.06;67.59;103202.78;5092655;28;20031;-73
2022/03/26 06:41:11;;;;;;;105.13;43.03;;;;;;;9.18;67.49;103201.88;5095442;28;20124;-73
2022/03/26 06:43:38;;;;;;;110.97;44.75;;;;;;;9.30;67.77;103208.19;5097121;28;20036;-76
2022/03/26 06:46:04;;;;;;;107.93;44.22;;;;;;;9.65;67.29;103210.88;5095521;28;20395;-74
2022/03/26 06:48:30;;;;;;;112.07;45.10;;;;;;;9.94;66.35;103205.06;5096986;28;20565;-75
2022/03/26 06:50:55;;;;;;;97.28;42.70;;;;;;;10.45;65.07;103215.41;5096792;28;20040;-74
2022/03/26 06:53:20;;;;;;;101.95;46.03;;;;;;;11.07;63.18;103204.03;5096907;28;20413;-74
2022/03/26 06:55:46;;;;;;;110.47;48.13;;;;;;;11.53;60.44;103208.28;5096655;28;20044;-74
2022/03/26 06:58:11;;;;;;;96.60;44.83;;;;;;;12.43;59.58;103207.69;5096331;28;20026;-76
2022/03/26 07:00:37;;;;;;;106.65;45.83;;;;;;;13.65;56.52;103213.69;5077831;28;20032;-75
2022/03/26 07:03:02;;;;;;;103.72;47.53;;;;;;;14.42;52.80;103220.75;5096715;28;20136;-74
2022/03/26 07:05:27;;;;;;;99.88;47.97;;;;;;;15.19;50.88;103223.19;5095080;28;20053;-74
2022/03/26 07:07:53;;;;;;;98.70;49.85;;;;;;;15.53;49.03;103218.78;5096502;28;20052;-75
2022/03/26 07:10:18;;;;;;;91.18;46.17;;;;;;;16.68;46.29;103223.03;5096901;28;20063;-74
2022/03/26 07:12:43;;;;;;;91.20;46.72;;;;;;;17.50;43.20;103220.50;5096476;28;20036;-74
2022/03/26 07:15:09;;;;;;;95.90;49.97;;;;;;;17.60;42.78;103216.78;5097126;28;20036;-75
2022/03/26 07:17:38;;;;;;;93.78;47.63;;;;;;;18.33;41.35;103232.19;5097059;28;20032;-74
2022/03/26 07:20:04;;;;;;;94.60;48.58;;;;;;;18.55;40.61;103234.13;5096876;28;20093;-73
2022/03/26 07:22:30;;;;;;;91.82;46.72;;;;;;;19.32;38.95;103238.84;5096657;28;20051;-74
2022/03/26 07:24:55;;;;;;;92.43;47.97;;;;;;;19.38;38.04;103238.13;5096926;28;20024;-75
2022/03/26 07:27:20;;;;;;;83.18;44.65;;;;;;;19.80;37.13;103244.97;5094947;28;20032;-76
2022/03/26 07:29:48;;;;;;;86.80;45.35;;;;;;;19.86;36.96;103243.38;5084999;28;20024;-75
2022/03/26 07:32:14;;;;;;;88.20;46.40;;;;;;;19.90;37.09;103245.53;5093290;28;20589;-74
2022/03/26 07:34:39;;;;;;;81.07;44.58;;;;;;;20.50;35.67;103246.44;5096036;28;20040;-74
2022/03/26 07:37:05;;;;;;;88.47;48.08;;;;;;;20.51;35.40;103252.75;5096116;28;20532;-75
2022/03/26 07:39:30;;;;;;;88.35;46.70;;;;;;;20.31;36.38;103257.94;5096867;28;20551;-74
2022/03/26 07:41:55;;;;;;;83.65;43.50;;;;;;;20.97;34.73;103258.00;5074845;28;20025;-73
2022/03/26 07:44:22;;;;;;;84.90;43.78;;;;;;;21.48;33.86;103260.66;5091211;28;20047;-75
2022/03/26 07:46:47;;;;;;;79.43;44.10;;;;;;;21.90;32.48;103253.44;5091553;28;20016;-75
2022/03/26 07:49:13;;;;;;;74.72;39.58;;;;;;;21.96;32.68;103258.16;5093866;28;20742;-76
2022/03/26 07:51:38;;;;;;;86.68;42.83;;;;;;;22.13;31.72;103265.00;5093253;28;20047;-74
2022/03/26 07:54:04;;;;;;;75.75;41.17;;;;;;;22.01;31.96;103268.50;5092148;28;20025;-75
2022/03/26 07:56:29;;;;;;;77.13;40.35;;;;;;;21.70;32.87;103269.75;5094652;28;20111;-76
2022/03/26 07:58:57;;;;;;;84.75;40.58;;;;;;;22.28;31.27;103272.34;5094687;28;20035;-76
2022/03/26 08:01:23;;;;;;;76.35;39.92;;;;;;;22.64;30.11;103276.72;5093000;28;20399;-75
2022/03/26 08:03:53;;;;;;;82.78;41.72;;;;;;;22.80;29.74;103276.38;5092770;28;20036;-75
2022/03/26 08:06:19;;;;;;;72.60;37.90;;;;;;;22.88;28.86;103276.22;5093289;28;20035;-74
2022/03/26 08:08:44;;;;;;;76.32;38.20;;;;;;;22.48;30.25;103283.41;5092612;28;20443;-75
2022/03/26 08:11:10;;;;;;;80.70;38.55;;;;;;;22.64;29.99;103288.56;5092599;28;20166;-74
2022/03/26 08:13:35;;;;;;;79.63;39.55;;;;;;;22.74;28.79;103282.69;5091542;28;20028;-75
2022/03/26 08:16:00;;;;;;;80.05;37.58;;;;;;;22.87;29.38;103287.41;5092910;28;20422;-74
2022/03/26 08:18:26;;;;;;;79.22;38.28;;;;;;;23.27;28.50;103295.81;5092411;28;20865;-73
2022/03/26 08:20:51;;;;;;;78.22;37.30;;;;;;;23.35;28.51;103295.59;5091169;28;20048;-74
2022/03/26 08:23:16;;;;;;;84.28;41.30;;;;;;;23.21;29.02;103294.75;5091960;28;20036;-73
2022/03/26 08:28:25;;;;;;;85.13;41.70;;;;;;;23.66;28.20;103297.78;5090894;28;20250;-74
2022/03/26 08:30:51;;;;;;;89.20;42.15;;;;;;;23.81;27.99;103290.22;5090154;28;20107;-73
2022/03/26 08:33:17;;;;;;;85.60;42.13;;;;;;;23.82;28.84;103296.56;5091251;28;20069;-74
2022/03/26 08:35:42;;;;;;;83.03;40.08;;;;;;;23.94;28.78;103294.03;5088627;28;20069;-73
2022/03/26 08:38:08;;;;;;;85.97;43.63;;;;;;;23.87;28.62;103299.50;5090454;28;20115;-73
2022/03/26 08:40:35;;;;;;;87.20;40.15;;;;;;;23.80;29.58;103299.53;5089834;28;20582;-74
2022/03/26 08:43:00;;;;;;;;;;;;;;;24.84;27.63;103303.38;5089855;28;20032;-73
2022/03/26 08:45:26;;;;;;;86.90;40.80;;;;;;;25.19;26.99;103303.00;5091295;28;19915;-73
2022/03/26 08:47:52;;;;;;;85.35;37.85;;;;;;;25.43;26.60;103300.53;5092762;28;20042;-73
2022/03/26 08:50:17;;;;;;;79.32;39.45;;;;;;;25.34;26.30;103303.56;5090507;28;20028;-73
2022/03/26 08:52:43;;;;;;;84.35;39.28;;;;;;;24.88;27.24;103301.00;5089739;28;20063;-73
2022/03/26 08:55:08;;;;;;;91.70;40.60;;;;;;;24.80;26.99;103304.03;5085270;28;20019;-73
2022/03/26 08:57:34;;;;;;;79.90;36.45;;;;;;;25.13;26.84;103298.38;5078967;28;20036;-74
2022/03/26 08:59:59;;;;;;;76.03;35.28;;;;;;;25.66;26.72;103302.72;5092252;28;20032;-73
2022/03/26 09:02:25;;;;;;;75.82;36.17;;;;;;;25.50;25.94;103296.69;5098363;28;20036;-73
2022/03/26 09:04:50;;;;;;;78.55;36.40;;;;;;;25.92;25.74;103297.00;5100862;28;20024;-74
2022/03/26 09:07:15;;;;;;;72.85;34.38;;;;;;;25.90;26.00;103296.38;5098831;28;20050;-73
2022/03/26 09:09:40;;;;;;;68.72;32.35;;;;;;;26.10;25.54;103298.97;5094927;28;20036;-74
2022/03/26 09:12:07;;;;;;;67.55;30.85;;;;;;;25.92;26.12;103304.44;5096103;28;20024;-73
2022/03/26 09:14:32;;;;;;;59.70;28.85;;;;;;;25.39;26.75;103302.91;5095144;28;20102;-73
2022/03/26 09:16:57;;;;;;;71.90;32.45;;;;;;;25.65;25.96;103301.88;5095482;28;20067;-72
2022/03/26 09:19:23;;;;;;;61.55;31.15;;;;;;;26.31;25.65;103308.75;5093273;28;20070;-73
2022/03/26 09:21:49;;;;;;;63.92;32.63;;;;;;;26.64;25.09;103300.09;5092602;28;20058;-73
2022/03/26 09:24:15;;;;;;;64.43;31.10;;;;;;;27.01;24.84;103304.75;5095555;28;20028;-76
2022/03/26 09:26:41;;;;;;;56.47;27.50;;;;;;;26.62;25.09;103309.69;5091880;28;20028;-74
2022/03/26 09:29:08;;;;;;;52.65;24.98;;;;;;;26.97;24.57;103312.69;5091059;28;20471;-74
2022/03/26 09:31:33;;;;;;;60.08;26.92;;;;;;;26.03;26.06;103304.53;5092358;28;20103;-74
2022/03/26 09:33:58;;;;;;;42.70;20.75;;;;;;;26.01;25.01;103311.34;5096910;28;20078;-74
2022/03/26 09:36:24;;;;;;;44.88;20.08;;;;;;;25.30;26.29;103315.25;5099808;28;20036;-75
2022/03/26 09:38:50;;;;;;;36.42;16.15;;;;;;;25.16;25.71;103306.22;5099939;28;20083;-74
2022/03/26 09:41:16;;;;;;;34.65;18.30;;;;;;;25.12;27.18;103297.53;5082642;28;20028;-75
2022/03/26 09:43:42;;;;;;;46.78;23.25;;;;;;;25.30;25.93;103299.53;5093903;28;20032;-73
2022/03/26 09:46:07;;;;;;;52.15;24.75;;;;;;;25.07;26.45;103302.00;5092453;28;20461;-74
2022/03/26 09:48:33;;;;;;;47.00;24.35;;;;;;;25.48;26.24;103301.56;5094677;28;20028;-74
2022/03/26 09:50:59;;;;;;;55.33;26.85;;;;;;;25.47;26.27;103310.91;5092509;28;20560;-74
2022/03/26 09:53:25;;;;;;;51.08;25.98;;;;;;;25.48;26.21;103306.25;5092838;28;20028;-74
2022/03/26 09:55:51;;;;;;;48.38;21.92;;;;;;;25.46;25.92;103314.75;5092916;28;20031;-75
2022/03/26 09:58:17;;;;;;;46.03;20.50;;;;;;;25.55;25.99;103307.03;5091172;28;20103;-76
2022/03/26 10:00:42;;;;;;;50.45;23.50;;;;;;;25.01;26.60;103300.94;5072950;28;20067;-74
2022/03/26 10:03:07;;;;;;;49.40;23.17;;;;;;;25.11;26.53;103306.84;5088184;28;20036;-74
2022/03/26 10:05:34;;;;;;;52.47;22.42;;;;;;;24.72;26.89;103305.97;5094763;28;20402;-74
2022/03/26 10:08:17;;;;;;;46.72;20.35;;;;;;;24.40;27.44;103310.47;5098204;28;20263;-74
2022/03/26 10:10:45;;;;;;;49.90;21.92;;;;;;;23.88;29.23;103313.06;5096933;28;20028;-72
2022/03/26 10:13:11;;;;;;;48.90;21.73;;;;;;;23.85;29.14;103307.97;5097897;28;20149;-75
2022/03/26 10:15:36;;;;;;;48.28;20.15;;;;;;;24.03;27.78;103304.56;5094358;28;20036;-76
2022/03/26 10:18:09;;;;;;;52.33;21.67;;;;;;;23.91;27.38;103297.19;5092644;28;20024;-76
2022/03/26 10:20:34;;;;;;;53.95;23.35;;;;;;;23.48;28.55;103300.28;5090875;28;20365;-76
2022/03/26 10:23:00;;;;;;;56.70;24.38;;;;;;;22.98;30.00;103298.66;5092281;28;20039;-75
2022/03/26 10:25:25;;;;;;;61.25;26.42;;;;;;;23.06;29.33;103291.31;5092355;28;20043;-74
2022/03/26 10:27:55;;;;;;;63.03;26.38;;;;;;;22.92;29.46;103290.38;5092237;28;20028;-75
2022/03/26 10:33:21;;;;;;;69.28;26.88;;;;;;;22.83;30.25;103281.50;5091666;28;20039;-76
2022/03/26 10:35:54;;;;;;;69.72;29.25;;;;;;;22.90;29.33;103282.34;5092401;28;20428;-74
2022/03/26 10:38:19;;;;;;;80.25;30.83;;;;;;;22.74;30.18;103288.19;5091846;28;20497;-74
2022/03/26 10:40:44;;;;;;;87.53;36.85;;;;;;;22.81;30.24;103278.09;5090705;28;20192;-75
2022/03/26 10:43:14;;;;;;;89.22;38.65;;;;;;;22.78;30.49;103276.59;5092467;28;20566;-75
2022/03/26 10:45:47;;;;;;;107.15;45.35;;;;;;;23.09;31.19;103282.66;5097585;28;20092;-74
2022/03/26 10:48:13;;;;;;;98.28;44.67;;;;;;;22.61;31.60;103278.00;5092324;28;20046;-73
2022/03/26 10:50:39;;;;;;;102.60;44.33;;;;;;;22.80;30.70;103270.88;5091138;28;20032;-77
2022/03/26 10:53:11;;;;;;;93.68;42.00;;;;;;;22.57;31.18;103277.56;5095545;28;20389;-76
2022/03/26 10:55:43;;;;;;;103.45;43.60;;;;;;;22.75;30.36;103276.19;5089369;28;20138;-76
2022/03/26 10:58:09;;;;;;;95.07;40.83;;;;;;;22.56;30.33;103275.00;5090918;28;20421;-76
2022/03/26 11:00:34;;;;;;;100.78;42.55;;;;;;;21.97;32.41;103280.94;5091870;28;20053;-78
2022/03/26 11:03:00;;;;;;;106.07;42.25;;;;;;;22.07;32.46;103271.31;5091960;28;20028;-76
2022/03/26 11:05:25;;;;;;;96.15;41.03;;;;;;;22.75;30.55;103267.94;5093171;28;20455;-77
2022/03/26 11:07:51;;;;;;;107.57;43.30;;;;;;;23.02;30.19;103268.91;5091092;28;20499;-76
2022/03/26 11:10:16;;;;;;;115.90;45.90;;;;;;;23.31;29.20;103267.72;5092425;28;20360;-75
2022/03/26 11:12:45;;;;;;;110.15;49.75;;;;;;;22.81;31.13;103264.38;5091782;28;20028;-76